Santa Rita do Sapucai, Brazil
Current Conditions -  °F | °C
As of 5:00 PM on Tuesday 27 Jan 2015 (Local Time) from SBGW Reporting Station
Thunderstorm Thunderstorm  
Wind Chill: 84°   Ceiling: 2500
Heat Index: 86°   Visibility: 6mi
Dew Point: 66°   Wind: 3mph
Humidity: 55%   Direction: 10°N
Pressure: 29.94"   Gusts: NA
Location:  22.25°S, 45.7°W
Report Text: SBGW 271900Z 01003KT 330V060 9999 TS VCSH BKN025 FEW030CB 29/19 Q1014
Loading
Personal Weather Stations






























Interactive Weather Map New forecast layout! Learn more

10-Day Weather Forecast

Advertisements
Track Severe Weather on mobile